createdAt,value
2023-02-26T00:13:22.476Z,1.60
2023-02-26T00:28:24.880Z,1.40
2023-02-26T00:43:27.146Z,1.60
2023-02-26T00:58:29.095Z,1.40
2023-02-26T01:13:32.581Z,1.40
2023-02-26T01:28:34.917Z,1.30
2023-02-26T01:44:24.435Z,1.00
2023-02-26T01:59:26.571Z,1.30
2023-02-26T02:14:34.598Z,1.30
2023-02-26T02:30:00.372Z,1.30
2023-02-26T02:45:13.984Z,1.30
2023-02-26T03:00:18.556Z,1.30
2023-02-26T03:15:38.113Z,1.40
2023-02-26T03:30:48.397Z,1.50
2023-02-26T03:45:54.471Z,1.30
2023-02-26T04:01:03.513Z,1.10
2023-02-26T04:16:05.981Z,1.10
2023-02-26T04:31:08.178Z,1.00
2023-02-26T04:46:10.268Z,1.00
2023-02-26T05:01:13.809Z,0.90
2023-02-26T05:16:16.250Z,1.00
2023-02-26T05:31:18.280Z,0.90
2023-02-26T05:46:20.425Z,0.80
2023-02-26T06:01:22.388Z,0.90
2023-02-26T06:16:25.513Z,0.80
2023-02-26T06:31:27.905Z,1.00
2023-02-26T06:46:30.224Z,1.00
2023-02-26T07:01:32.241Z,1.10
2023-02-26T07:16:34.376Z,1.10
2023-02-26T07:31:37.336Z,0.90
2023-02-26T07:46:39.388Z,1.20
2023-02-26T08:01:41.367Z,1.10
2023-02-26T08:16:43.529Z,1.10
2023-02-26T08:31:45.704Z,1.30
2023-02-26T08:46:47.735Z,1.60
2023-02-26T09:01:49.849Z,1.60
2023-02-26T09:16:51.800Z,1.50
2023-02-26T09:31:53.847Z,1.50
2023-02-26T09:47:23.320Z,1.60
2023-02-26T10:02:43.322Z,1.90
2023-02-26T10:18:13.718Z,2.00
2023-02-26T10:33:18.715Z,2.10
2023-02-26T10:48:45.509Z,2.10
2023-02-26T11:03:51.909Z,3.40
2023-02-26T11:18:55.301Z,2.70
2023-02-26T11:34:05.095Z,3.20
2023-02-26T11:49:07.115Z,3.40
2023-02-26T12:04:12.502Z,3.30
2023-02-26T12:19:37.008Z,2.80
2023-02-26T12:34:57.493Z,1.60
2023-02-26T12:50:33.334Z,2.20
2023-02-26T13:06:03.844Z,2.90
2023-02-26T13:21:16.451Z,2.00
2023-02-26T13:36:22.123Z,2.60
2023-02-26T13:51:40.275Z,3.20
2023-02-26T14:06:44.673Z,2.60
2023-02-26T14:21:49.944Z,1.90
2023-02-26T14:37:07.190Z,2.20
2023-02-26T14:52:31.518Z,2.70
2023-02-26T15:08:02.606Z,2.30
2023-02-26T15:23:28.850Z,2.00
2023-02-26T15:38:44.078Z,1.80
2023-02-26T15:53:55.468Z,1.90
2023-02-26T16:08:58.333Z,1.90
2023-02-26T16:24:03.369Z,2.00
2023-02-26T16:39:05.304Z,1.90
2023-02-26T16:54:30.883Z,1.90
2023-02-26T17:09:43.015Z,2.40
2023-02-26T17:24:49.570Z,1.90
2023-02-26T17:39:51.655Z,1.70
2023-02-26T17:54:53.721Z,1.80
2023-02-26T18:09:55.669Z,2.00
2023-02-26T18:24:57.737Z,2.10
2023-02-26T18:39:59.693Z,1.90
2023-02-26T18:55:03.250Z,2.00
2023-02-26T19:10:09.560Z,1.80
2023-02-26T19:25:12.432Z,1.80
2023-02-26T19:40:19.657Z,1.80
2023-02-26T19:55:22.019Z,1.80
2023-02-26T20:10:24.489Z,1.80
2023-02-26T20:25:26.488Z,1.90
2023-02-26T20:40:28.475Z,2.00
2023-02-26T20:55:30.655Z,1.90
2023-02-26T21:10:32.966Z,2.00
2023-02-26T21:25:35.077Z,1.90
2023-02-26T21:40:37.713Z,1.90
2023-02-26T21:55:39.805Z,1.80
2023-02-26T22:10:41.782Z,1.90
2023-02-26T22:25:43.887Z,2.00
2023-02-26T22:40:45.841Z,1.80
2023-02-26T22:55:48.130Z,2.00
2023-02-26T23:10:50.342Z,1.90
2023-02-26T23:25:53.218Z,2.10
2023-02-26T23:40:58.373Z,1.70
2023-02-26T23:56:01.410Z,1.70
